New Oxford, Pennsylvania
Current Conditions -  °F | °C
As of 6:53 AM on Friday 28 Nov 2014 (Local Time) from KTHV Reporting Station
Few Clouds Few Clouds  
Wind Chill: 21°   Ceiling: Unl
Heat Index: 29°   Visibility: 10mi
Dew Point: 23°   Wind: 8mph
Humidity: 78%   Direction: 280°W
Pressure: 30.22"   Gusts: NA
Location:  39.86°N, 77.06°W
Report Text: KTHV 281153Z AUTO 28007KT 10SM FEW075 M02/M05 A3022 RMK AO2 SLP240 70001 T10171050 10006 21028 53022
Loading
Personal Weather Stations






























Interactive Weather Map New forecast layout! Learn more

10-Day Weather Forecast

Advertisements
Track Severe Weather on mobile